Rechercher aéroport 
image banner adimage banner adimage banner ad
image banner ad

O15 - Turlock Muni

Situé à Turlock, United States

ICAO - O15, IATA -

Données fournies par Airmate  

Information générale

Coordonnées: N37°29'3" W120°41'50"
Élévation : 161 feet MSL.
Variation magnétique : 16° East
Voir autres Aéroports à California

Données opérationnelles

Special qualification required
Heure actuelle UTC:
Heure actuelle locale:
Météo à : KMER - Castle ( 16 km )
METAR: KMER 231255Z AUTO 32005KT 10SM CLR 17/06 A2989 RMK AO1
TAF: KMER 231132Z 2312/2412 VRB05KT P6SM SKC AMD NOT SKED
Voir NOTAMs / SUP AIP / TFR affectant cet aéroport [VIEW]
Fréquences de communication: [VIEW]

Pistes:

Identifiant RWYQFULongueur (ft)Largeur (ft)SurfaceLDA (ft)
12298550ASPH
30298550ASPH

Coordonnées de l'aéroport

Adresse: Turlock United States

Vue satellite de O15